Royal Prince — WCX8037 — position and weather

sailwx.info

Track history (hours):
 
Tides and Currents Weather Stations Pressure Air Temp Water Temp Dewpoint Dewpoint Depression Visibility Wind Speed Wind Dir Waves Ship Positions

Royal Prince

Owner: Golden Gate Scenic Steamship Corp, SAN FRANCISCO, CA. More information available from US FCC via Universal Licensing System and Coast Guard Vessel Documentation Center.

Last reported at 2017-Jun-27 02:18 UTC. Time now 2017-Jun-27 07:16 UTC.
Position N 37°49' W 122°25'.

; draft 3 m.

Type: Passenger vessel. MMSI: 366975760.

Date/timePositionNaut miles runAvg speedWind from/ knotsBaromVisibWave heightAir tempDewpointWater temp
2017-Jun-27 02:18N 37°49' W 122°25'1 2.4
2017-Jun-27 02:00N 37°49' W 122°24'1 2.1
2017-Jun-27 01:30N 37°49' W 122°25'2 4.4
2017-Jun-27 01:00N 37°49' W 122°28'2 4.4
2017-Jun-27 00:30N 37°49' W 122°25'1 1.7
2017-Jun-27 00:00N 37°49' W 122°25'2 4.1
2017-Jun-26 23:30N 37°49' W 122°27'2 4.2
2017-Jun-26 23:00N 37°49' W 122°25'2 4.0
2017-Jun-26 22:30N 37°50' W 122°27'2 4.0
2017-Jun-26 22:00N 37°49' W 122°25'1 1.4
2017-Jun-26 21:30N 37°49' W 122°24'2 4.8
2017-Jun-26 21:00N 37°49' W 122°27'2 4.1
2017-Jun-26 20:30N 37°49' W 122°25'0 0.0
2017-Jun-26 20:00N 37°49' W 122°25'0 0.0
2017-Jun-26 19:30N 37°49' W 122°25'1 1.6
2017-Jun-26 19:00N 37°49' W 122°25'2 3.8
2017-Jun-26 18:30N 37°49' W 122°27'2 3.4
2017-Jun-26 18:00N 37°49' W 122°25'3 5.8
2017-Jun-26 17:30N 37°49' W 122°28'3 5.7
2017-Jun-26 17:00N 37°49' W 122°25'0 0.0
2017-Jun-26 02:17N 37°49' W 122°25'1 2.1
2017-Jun-26 02:00N 37°49' W 122°24'1 1.7
2017-Jun-26 01:30N 37°49' W 122°25'2 4.9
2017-Jun-26 01:01N 37°49' W 122°28'2 4.6
2017-Jun-26 00:30N 37°49' W 122°25'1 1.3
2017-Jun-26 00:00N 37°49' W 122°25'2 4.8
2017-Jun-25 23:30N 37°49' W 122°28'2 4.7
2017-Jun-25 23:00N 37°49' W 122°25'2 3.7
2017-Jun-25 22:30N 37°50' W 122°27'2 3.7
2017-Jun-25 22:00N 37°49' W 122°25'0 0.8
2017-Jun-25 21:30N 37°49' W 122°25'3 5.4
2017-Jun-25 21:00N 37°49' W 122°28'2 4.9
2017-Jun-25 20:30N 37°49' W 122°25'0 0.0
2017-Jun-25 20:00N 37°49' W 122°25'0 0.0
2017-Jun-25 19:30N 37°49' W 122°25'1 2.6
2017-Jun-25 19:00N 37°50' W 122°26'1 1.9
2017-Jun-25 18:31N 37°49' W 122°26'1 1.7
2017-Jun-25 18:01N 37°49' W 122°25'3 6.3
2017-Jun-25 17:30N 37°49' W 122°29'3 6.3
2017-Jun-25 17:00N 37°49' W 122°25'0 0.0
2017-Jun-25 02:22N 37°49' W 122°25'1 1.6
2017-Jun-25 02:01N 37°49' W 122°24'1 1.8
2017-Jun-25 01:31N 37°49' W 122°25'2 4.3
2017-Jun-25 01:01N 37°49' W 122°27'2 3.9
2017-Jun-25 00:30N 37°49' W 122°25'1 1.6
2017-Jun-25 00:01N 37°49' W 122°25'2 4.3
2017-Jun-24 23:31N 37°49' W 122°28'2 4.3
2017-Jun-24 23:01N 37°49' W 122°25'2 4.9
2017-Jun-24 22:31N 37°49' W 122°28'2 4.9
2017-Jun-24 22:01N 37°49' W 122°25'1 1.1
2017-Jun-24 21:31N 37°49' W 122°24'3 5.3
2017-Jun-24 21:01N 37°49' W 122°28'2 4.7
2017-Jun-24 20:30N 37°49' W 122°25'0 0.0
2017-Jun-24 20:00N 37°49' W 122°25'0 0.0
2017-Jun-24 19:30N 37°49' W 122°25'1 2.2
2017-Jun-24 19:00N 37°50' W 122°25'1 2.4
2017-Jun-24 18:31N 37°49' W 122°26'1 2.4
2017-Jun-24 18:00N 37°49' W 122°25'3 5.5
2017-Jun-24 17:30N 37°49' W 122°28'3 5.5
2017-Jun-24 17:00N 37°49' W 122°25'0 0.0
2017-Jun-24 02:19N 37°49' W 122°25'1 2.1
2017-Jun-24 02:00N 37°49' W 122°24'1 2.0
2017-Jun-24 01:30N 37°49' W 122°25'2 3.8
2017-Jun-24 01:00N 37°49' W 122°27'2 3.6
2017-Jun-24 00:30N 37°49' W 122°25'1 1.7
2017-Jun-24 00:00N 37°49' W 122°25'2 3.6
2017-Jun-23 23:30N 37°49' W 122°27'2 3.7
2017-Jun-23 23:00N 37°49' W 122°25'2 4.0
2017-Jun-23 22:30N 37°50' W 122°27'2 4.0
2017-Jun-23 22:00N 37°49' W 122°25'0 0.9
2017-Jun-23 21:30N 37°49' W 122°24'3 6.4
2017-Jun-23 21:01N 37°49' W 122°28'3 5.7
2017-Jun-23 20:30N 37°49' W 122°25'0 0.0
2017-Jun-23 20:00N 37°49' W 122°25'0 0.0
2017-Jun-23 19:30N 37°49' W 122°25'1 2.1
2017-Jun-23 19:00N 37°50' W 122°25'1 2.7
2017-Jun-23 18:30N 37°49' W 122°27'1 2.7
2017-Jun-23 18:00N 37°49' W 122°25'3 5.1
2017-Jun-23 17:30N 37°49' W 122°28'3 5.1
2017-Jun-23 17:00N 37°49' W 122°25'0 0.0
2017-Jun-23 16:30N 37°49' W 122°25'0 0.0
2017-Jun-23 02:19N 37°49' W 122°25'1 3.2
2017-Jun-23 02:00N 37°48' W 122°24'2 4.3
2017-Jun-23 01:30N 37°50' W 122°26'2 3.3
2017-Jun-23 01:00N 37°49' W 122°27'2 3.4
2017-Jun-23 00:30N 37°49' W 122°25'1 1.4
2017-Jun-23 00:00N 37°49' W 122°25'2 5.0
2017-Jun-22 23:30N 37°49' W 122°28'2 4.4
2017-Jun-22 23:00N 37°49' W 122°25'2 4.5
2017-Jun-22 22:30N 37°49' W 122°28'2 4.6
2017-Jun-22 22:00N 37°49' W 122°25'1 1.4
2017-Jun-22 21:30N 37°49' W 122°24'3 5.2
2017-Jun-22 21:00N 37°49' W 122°28'2 4.5
2017-Jun-22 20:30N 37°49' W 122°25'0 0.0
2017-Jun-22 20:00N 37°49' W 122°25'0 0.0
2017-Jun-22 19:30N 37°49' W 122°25'1 2.4
2017-Jun-22 19:00N 37°50' W 122°25'1 1.9
2017-Jun-22 18:30N 37°49' W 122°26'1 1.5
2017-Jun-22 18:00N 37°49' W 122°25'2 5.0
2017-Jun-22 17:30N 37°49' W 122°28'2 5.0
2017-Jun-22 17:00N 37°49' W 122°25'0 0.0
2017-Jun-22 02:22N 37°49' W 122°25'1 3.3
2017-Jun-22 02:00N 37°48' W 122°24'2 3.8
2017-Jun-22 01:30N 37°49' W 122°25'1 2.6
2017-Jun-22 01:00N 37°49' W 122°26'1 2.5
2017-Jun-22 00:30N 37°49' W 122°25'1 2.2
2017-Jun-22 00:00N 37°50' W 122°25'1 2.8
2017-Jun-21 23:30N 37°49' W 122°27'1 2.8
2017-Jun-21 23:00N 37°49' W 122°25'2 4.7
2017-Jun-21 22:30N 37°49' W 122°28'2 4.6
2017-Jun-21 22:00N 37°49' W 122°25'1 1.6
2017-Jun-21 21:30N 37°49' W 122°25'3 5.2
2017-Jun-21 21:00N 37°49' W 122°28'2 4.7
2017-Jun-21 20:30N 37°49' W 122°25'0 0.0
2017-Jun-21 20:00N 37°49' W 122°25'0 0.0
2017-Jun-21 19:30N 37°49' W 122°25'1 1.3
2017-Jun-21 19:00N 37°49' W 122°25'2 3.8
2017-Jun-21 18:30N 37°49' W 122°27'2 3.4
2017-Jun-21 18:00N 37°49' W 122°25'2 3.7
2017-Jun-21 17:30N 37°49' W 122°27'2 3.7
2017-Jun-21 17:00N 37°49' W 122°25'0 0.0
2017-Jun-21 02:19N 37°49' W 122°25'1 1.9
2017-Jun-21 02:00N 37°49' W 122°24'1 2.0
2017-Jun-21 01:30N 37°49' W 122°25'2 3.2
2017-Jun-21 01:00N 37°49' W 122°27'2 3.3
2017-Jun-21 00:30N 37°49' W 122°25'1 1.5
2017-Jun-21 00:00N 37°49' W 122°25'2 3.9
2017-Jun-20 23:30N 37°49' W 122°27'2 3.7
2017-Jun-20 23:00N 37°49' W 122°25'2 4.2
2017-Jun-20 22:30N 37°49' W 122°27'2 4.2
2017-Jun-20 22:00N 37°49' W 122°25'1 1.2
2017-Jun-20 21:30N 37°49' W 122°24'3 6.3
2017-Jun-20 21:00N 37°49' W 122°28'3 5.5
2017-Jun-20 20:30N 37°49' W 122°25'0 0.0
2017-Jun-20 20:00N 37°49' W 122°25'0 0.0
2017-Jun-20 19:30N 37°49' W 122°25'1 2.0
2017-Jun-20 19:00N 37°50' W 122°25'2 3.2
2017-Jun-20 18:30N 37°49' W 122°27'2 3.3
2017-Jun-20 18:00N 37°49' W 122°25'2 3.9
2017-Jun-20 17:30N 37°49' W 122°27'2 3.9
2017-Jun-20 17:00N 37°49' W 122°25'0 0.0
2017-Jun-20 02:29N 37°49' W 122°25'2 4.0
2017-Jun-20 02:00N 37°47' W 122°23'4 8.6
2017-Jun-20 01:31N 37°50' W 122°28'1 1.7
2017-Jun-20 01:00N 37°49' W 122°27'2 3.1
2017-Jun-20 00:30N 37°49' W 122°25'1 1.7
2017-Jun-20 00:00N 37°49' W 122°25'2 3.2
2017-Jun-19 23:30N 37°49' W 122°27'2 3.0
2017-Jun-19 23:00N 37°49' W 122°25'3 5.3
2017-Jun-19 22:30N 37°49' W 122°28'3 5.4
2017-Jun-19 22:00N 37°49' W 122°25'1 1.3
2017-Jun-19 21:30N 37°49' W 122°24'3 5.9
2017-Jun-19 21:00N 37°49' W 122°28'2 4.9
2017-Jun-19 20:30N 37°49' W 122°25'0 0.0
2017-Jun-19 20:00N 37°49' W 122°25'0 0.0
2017-Jun-19 19:30N 37°49' W 122°25'1 1.8
2017-Jun-19 19:00N 37°49' W 122°25'2 4.0
2017-Jun-19 18:30N 37°49' W 122°27'2 4.0
2017-Jun-19 18:00N 37°49' W 122°25'2 4.1
2017-Jun-19 17:30N 37°49' W 122°27'2 4.0
2017-Jun-19 17:00N 37°49' W 122°25'0 0.0
2017-Jun-19 02:22N 37°49' W 122°25'1 1.5
2017-Jun-19 02:00N 37°49' W 122°24'1 1.7
2017-Jun-19 01:30N 37°49' W 122°25'2 4.2
2017-Jun-19 01:00N 37°49' W 122°27'2 3.8
2017-Jun-19 00:30N 37°49' W 122°25'1 2.0
2017-Jun-19 00:00N 37°50' W 122°25'1 2.7
2017-Jun-18 23:31N 37°49' W 122°27'1 2.8
2017-Jun-18 23:00N 37°49' W 122°25'3 5.5
2017-Jun-18 22:31N 37°50' W 122°28'3 5.4
2017-Jun-18 22:00N 37°49' W 122°25'0 0.9
2017-Jun-18 21:30N 37°49' W 122°24'3 5.5
2017-Jun-18 21:01N 37°49' W 122°28'2 4.8
2017-Jun-18 20:30N 37°49' W 122°25'0 0.0
2017-Jun-18 20:00N 37°49' W 122°25'0 0.0
2017-Jun-18 19:30N 37°49' W 122°25'2 4.1
2017-Jun-18 19:00N 37°50' W 122°27'2 4.1
2017-Jun-18 18:30N 37°49' W 122°25'0 0.2
2017-Jun-18 18:00N 37°49' W 122°25'3 5.6
2017-Jun-18 17:30N 37°49' W 122°28'3 5.7
2017-Jun-18 17:00N 37°49' W 122°25'0 0.0
2017-Jun-18 02:26N 37°49' W 122°25'1 2.6
2017-Jun-18 02:01N 37°48' W 122°24'2 3.7
2017-Jun-18 01:30N 37°50' W 122°25'1 2.9
2017-Jun-18 01:01N 37°49' W 122°27'2 3.1
2017-Jun-18 00:31N 37°49' W 122°25'1 2.2
2017-Jun-18 00:01N 37°50' W 122°25'1 2.2
2017-Jun-17 23:31N 37°49' W 122°26'1 2.1
2017-Jun-17 23:00N 37°49' W 122°25'3 5.4
2017-Jun-17 22:31N 37°50' W 122°28'3 5.4
2017-Jun-17 22:00N 37°49' W 122°25'0 0.7
2017-Jun-17 21:30N 37°49' W 122°25'3 5.6
2017-Jun-17 21:00N 37°49' W 122°28'3 5.1
2017-Jun-17 20:31N 37°49' W 122°25'0 0.0
2017-Jun-17 20:00N 37°49' W 122°25'0 0.0
2017-Jun-17 19:31N 37°49' W 122°25'1 2.2
2017-Jun-17 19:00N 37°50' W 122°25'2 3.1
2017-Jun-17 18:31N 37°49' W 122°27'2 3.3
2017-Jun-17 18:00N 37°49' W 122°25'2 4.7
2017-Jun-17 17:31N 37°49' W 122°28'2 4.6
2017-Jun-17 17:00N 37°49' W 122°25'0 0.0
2017-Jun-17 16:31N 37°49' W 122°25'0 0.0
2017-Jun-17 02:21N 37°49' W 122°25'  
Track history (hours):
 
Tides and Currents Weather Stations Pressure Air Temp Water Temp Dewpoint Dewpoint Depression Visibility Wind Speed Wind Dir Waves Ship Positions

Royal Prince

Owner: Golden Gate Scenic Steamship Corp, SAN FRANCISCO, CA. More information available from US FCC via Universal Licensing System and Coast Guard Vessel Documentation Center.

Last reported at 2017-Jun-27 02:18 UTC. Time now 2017-Jun-27 07:16 UTC.
Position N 37°49' W 122°25'.

; draft 3 m.

Type: Passenger vessel. MMSI: 366975760.

Date/timePositionNaut miles runAvg speedWind from/ knotsBaromVisibWave heightAir tempDewpointWater temp
2017-Jun-27 02:18N 37°49' W 122°25'1 2.4
2017-Jun-27 02:00N 37°49' W 122°24'1 2.1
2017-Jun-27 01:30N 37°49' W 122°25'2 4.4
2017-Jun-27 01:00N 37°49' W 122°28'2 4.4
2017-Jun-27 00:30N 37°49' W 122°25'1 1.7
2017-Jun-27 00:00N 37°49' W 122°25'2 4.1
2017-Jun-26 23:30N 37°49' W 122°27'2 4.2
2017-Jun-26 23:00N 37°49' W 122°25'2 4.0
2017-Jun-26 22:30N 37°50' W 122°27'2 4.0
2017-Jun-26 22:00N 37°49' W 122°25'1 1.4
2017-Jun-26 21:30N 37°49' W 122°24'2 4.8
2017-Jun-26 21:00N 37°49' W 122°27'2 4.1
2017-Jun-26 20:30N 37°49' W 122°25'0 0.0
2017-Jun-26 20:00N 37°49' W 122°25'0 0.0
2017-Jun-26 19:30N 37°49' W 122°25'1 1.6
2017-Jun-26 19:00N 37°49' W 122°25'2 3.8
2017-Jun-26 18:30N 37°49' W 122°27'2 3.4
2017-Jun-26 18:00N 37°49' W 122°25'3 5.8
2017-Jun-26 17:30N 37°49' W 122°28'3 5.7
2017-Jun-26 17:00N 37°49' W 122°25'0 0.0
2017-Jun-26 02:17N 37°49' W 122°25'1 2.1
2017-Jun-26 02:00N 37°49' W 122°24'1 1.7
2017-Jun-26 01:30N 37°49' W 122°25'2 4.9
2017-Jun-26 01:01N 37°49' W 122°28'2 4.6
2017-Jun-26 00:30N 37°49' W 122°25'1 1.3
2017-Jun-26 00:00N 37°49' W 122°25'2 4.8
2017-Jun-25 23:30N 37°49' W 122°28'2 4.7
2017-Jun-25 23:00N 37°49' W 122°25'2 3.7
2017-Jun-25 22:30N 37°50' W 122°27'2 3.7
2017-Jun-25 22:00N 37°49' W 122°25'0 0.8
2017-Jun-25 21:30N 37°49' W 122°25'3 5.4
2017-Jun-25 21:00N 37°49' W 122°28'2 4.9
2017-Jun-25 20:30N 37°49' W 122°25'0 0.0
2017-Jun-25 20:00N 37°49' W 122°25'0 0.0
2017-Jun-25 19:30N 37°49' W 122°25'1 2.6
2017-Jun-25 19:00N 37°50' W 122°26'1 1.9
2017-Jun-25 18:31N 37°49' W 122°26'1 1.7
2017-Jun-25 18:01N 37°49' W 122°25'3 6.3
2017-Jun-25 17:30N 37°49' W 122°29'3 6.3
2017-Jun-25 17:00N 37°49' W 122°25'0 0.0
2017-Jun-25 02:22N 37°49' W 122°25'1 1.6
2017-Jun-25 02:01N 37°49' W 122°24'1 1.8
2017-Jun-25 01:31N 37°49' W 122°25'2 4.3
2017-Jun-25 01:01N 37°49' W 122°27'2 3.9
2017-Jun-25 00:30N 37°49' W 122°25'1 1.6
2017-Jun-25 00:01N 37°49' W 122°25'2 4.3
2017-Jun-24 23:31N 37°49' W 122°28'2 4.3
2017-Jun-24 23:01N 37°49' W 122°25'2 4.9
2017-Jun-24 22:31N 37°49' W 122°28'2 4.9
2017-Jun-24 22:01N 37°49' W 122°25'1 1.1
2017-Jun-24 21:31N 37°49' W 122°24'3 5.3
2017-Jun-24 21:01N 37°49' W 122°28'2 4.7
2017-Jun-24 20:30N 37°49' W 122°25'0 0.0
2017-Jun-24 20:00N 37°49' W 122°25'0 0.0
2017-Jun-24 19:30N 37°49' W 122°25'1 2.2
2017-Jun-24 19:00N 37°50' W 122°25'1 2.4
2017-Jun-24 18:31N 37°49' W 122°26'1 2.4
2017-Jun-24 18:00N 37°49' W 122°25'3 5.5
2017-Jun-24 17:30N 37°49' W 122°28'3 5.5
2017-Jun-24 17:00N 37°49' W 122°25'0 0.0
2017-Jun-24 02:19N 37°49' W 122°25'1 2.1
2017-Jun-24 02:00N 37°49' W 122°24'1 2.0
2017-Jun-24 01:30N 37°49' W 122°25'2 3.8
2017-Jun-24 01:00N 37°49' W 122°27'2 3.6
2017-Jun-24 00:30N 37°49' W 122°25'1 1.7
2017-Jun-24 00:00N 37°49' W 122°25'2 3.6
2017-Jun-23 23:30N 37°49' W 122°27'2 3.7
2017-Jun-23 23:00N 37°49' W 122°25'2 4.0
2017-Jun-23 22:30N 37°50' W 122°27'2 4.0
2017-Jun-23 22:00N 37°49' W 122°25'0 0.9
2017-Jun-23 21:30N 37°49' W 122°24'3 6.4
2017-Jun-23 21:01N 37°49' W 122°28'3 5.7
2017-Jun-23 20:30N 37°49' W 122°25'0 0.0
2017-Jun-23 20:00N 37°49' W 122°25'0 0.0
2017-Jun-23 19:30N 37°49' W 122°25'1 2.1
2017-Jun-23 19:00N 37°50' W 122°25'1 2.7
2017-Jun-23 18:30N 37°49' W 122°27'1 2.7
2017-Jun-23 18:00N 37°49' W 122°25'3 5.1
2017-Jun-23 17:30N 37°49' W 122°28'3 5.1
2017-Jun-23 17:00N 37°49' W 122°25'0 0.0
2017-Jun-23 16:30N 37°49' W 122°25'0 0.0
2017-Jun-23 02:19N 37°49' W 122°25'1 3.2
2017-Jun-23 02:00N 37°48' W 122°24'2 4.3
2017-Jun-23 01:30N 37°50' W 122°26'2 3.3
2017-Jun-23 01:00N 37°49' W 122°27'2 3.4
2017-Jun-23 00:30N 37°49' W 122°25'1 1.4
2017-Jun-23 00:00N 37°49' W 122°25'2 5.0
2017-Jun-22 23:30N 37°49' W 122°28'2 4.4
2017-Jun-22 23:00N 37°49' W 122°25'2 4.5
2017-Jun-22 22:30N 37°49' W 122°28'2 4.6
2017-Jun-22 22:00N 37°49' W 122°25'1 1.4
2017-Jun-22 21:30N 37°49' W 122°24'3 5.2
2017-Jun-22 21:00N 37°49' W 122°28'2 4.5
2017-Jun-22 20:30N 37°49' W 122°25'0 0.0
2017-Jun-22 20:00N 37°49' W 122°25'0 0.0
2017-Jun-22 19:30N 37°49' W 122°25'1 2.4
2017-Jun-22 19:00N 37°50' W 122°25'1 1.9
2017-Jun-22 18:30N 37°49' W 122°26'1 1.5
2017-Jun-22 18:00N 37°49' W 122°25'2 5.0
2017-Jun-22 17:30N 37°49' W 122°28'2 5.0
2017-Jun-22 17:00N 37°49' W 122°25'0 0.0
2017-Jun-22 02:22N 37°49' W 122°25'1 3.3
2017-Jun-22 02:00N 37°48' W 122°24'2 3.8
2017-Jun-22 01:30N 37°49' W 122°25'1 2.6
2017-Jun-22 01:00N 37°49' W 122°26'1 2.5
2017-Jun-22 00:30N 37°49' W 122°25'1 2.2
2017-Jun-22 00:00N 37°50' W 122°25'1 2.8
2017-Jun-21 23:30N 37°49' W 122°27'1 2.8
2017-Jun-21 23:00N 37°49' W 122°25'2 4.7
2017-Jun-21 22:30N 37°49' W 122°28'2 4.6
2017-Jun-21 22:00N 37°49' W 122°25'1 1.6
2017-Jun-21 21:30N 37°49' W 122°25'3 5.2
2017-Jun-21 21:00N 37°49' W 122°28'2 4.7
2017-Jun-21 20:30N 37°49' W 122°25'0 0.0
2017-Jun-21 20:00N 37°49' W 122°25'0 0.0
2017-Jun-21 19:30N 37°49' W 122°25'1 1.3
2017-Jun-21 19:00N 37°49' W 122°25'2 3.8
2017-Jun-21 18:30N 37°49' W 122°27'2 3.4
2017-Jun-21 18:00N 37°49' W 122°25'2 3.7
2017-Jun-21 17:30N 37°49' W 122°27'2 3.7
2017-Jun-21 17:00N 37°49' W 122°25'0 0.0
2017-Jun-21 02:19N 37°49' W 122°25'1 1.9
2017-Jun-21 02:00N 37°49' W 122°24'1 2.0
2017-Jun-21 01:30N 37°49' W 122°25'2 3.2
2017-Jun-21 01:00N 37°49' W 122°27'2 3.3
2017-Jun-21 00:30N 37°49' W 122°25'1 1.5
2017-Jun-21 00:00N 37°49' W 122°25'2 3.9
2017-Jun-20 23:30N 37°49' W 122°27'2 3.7
2017-Jun-20 23:00N 37°49' W 122°25'2 4.2
2017-Jun-20 22:30N 37°49' W 122°27'2 4.2
2017-Jun-20 22:00N 37°49' W 122°25'1 1.2
2017-Jun-20 21:30N 37°49' W 122°24'3 6.3
2017-Jun-20 21:00N 37°49' W 122°28'3 5.5
2017-Jun-20 20:30N 37°49' W 122°25'0 0.0
2017-Jun-20 20:00N 37°49' W 122°25'0 0.0
2017-Jun-20 19:30N 37°49' W 122°25'1 2.0
2017-Jun-20 19:00N 37°50' W 122°25'2 3.2
2017-Jun-20 18:30N 37°49' W 122°27'2 3.3
2017-Jun-20 18:00N 37°49' W 122°25'2 3.9
2017-Jun-20 17:30N 37°49' W 122°27'2 3.9
2017-Jun-20 17:00N 37°49' W 122°25'0 0.0
2017-Jun-20 02:29N 37°49' W 122°25'2 4.0
2017-Jun-20 02:00N 37°47' W 122°23'4 8.6
2017-Jun-20 01:31N 37°50' W 122°28'1 1.7
2017-Jun-20 01:00N 37°49' W 122°27'2 3.1
2017-Jun-20 00:30N 37°49' W 122°25'1 1.7
2017-Jun-20 00:00N 37°49' W 122°25'2 3.2
2017-Jun-19 23:30N 37°49' W 122°27'2 3.0
2017-Jun-19 23:00N 37°49' W 122°25'3 5.3
2017-Jun-19 22:30N 37°49' W 122°28'3 5.4
2017-Jun-19 22:00N 37°49' W 122°25'1 1.3
2017-Jun-19 21:30N 37°49' W 122°24'3 5.9
2017-Jun-19 21:00N 37°49' W 122°28'2 4.9
2017-Jun-19 20:30N 37°49' W 122°25'0 0.0
2017-Jun-19 20:00N 37°49' W 122°25'0 0.0
2017-Jun-19 19:30N 37°49' W 122°25'1 1.8
2017-Jun-19 19:00N 37°49' W 122°25'2 4.0
2017-Jun-19 18:30N 37°49' W 122°27'2 4.0
2017-Jun-19 18:00N 37°49' W 122°25'2 4.1
2017-Jun-19 17:30N 37°49' W 122°27'2 4.0
2017-Jun-19 17:00N 37°49' W 122°25'0 0.0
2017-Jun-19 02:22N 37°49' W 122°25'1 1.5
2017-Jun-19 02:00N 37°49' W 122°24'1 1.7
2017-Jun-19 01:30N 37°49' W 122°25'2 4.2
2017-Jun-19 01:00N 37°49' W 122°27'2 3.8
2017-Jun-19 00:30N 37°49' W 122°25'1 2.0
2017-Jun-19 00:00N 37°50' W 122°25'1 2.7
2017-Jun-18 23:31N 37°49' W 122°27'1 2.8
2017-Jun-18 23:00N 37°49' W 122°25'3 5.5
2017-Jun-18 22:31N 37°50' W 122°28'3 5.4
2017-Jun-18 22:00N 37°49' W 122°25'0 0.9
2017-Jun-18 21:30N 37°49' W 122°24'3 5.5
2017-Jun-18 21:01N 37°49' W 122°28'2 4.8
2017-Jun-18 20:30N 37°49' W 122°25'0 0.0
2017-Jun-18 20:00N 37°49' W 122°25'0 0.0
2017-Jun-18 19:30N 37°49' W 122°25'2 4.1
2017-Jun-18 19:00N 37°50' W 122°27'2 4.1
2017-Jun-18 18:30N 37°49' W 122°25'0 0.2
2017-Jun-18 18:00N 37°49' W 122°25'3 5.6
2017-Jun-18 17:30N 37°49' W 122°28'3 5.7
2017-Jun-18 17:00N 37°49' W 122°25'0 0.0
2017-Jun-18 02:26N 37°49' W 122°25'1 2.6
2017-Jun-18 02:01N 37°48' W 122°24'2 3.7
2017-Jun-18 01:30N 37°50' W 122°25'1 2.9
2017-Jun-18 01:01N 37°49' W 122°27'2 3.1
2017-Jun-18 00:31N 37°49' W 122°25'1 2.2
2017-Jun-18 00:01N 37°50' W 122°25'1 2.2
2017-Jun-17 23:31N 37°49' W 122°26'1 2.1
2017-Jun-17 23:00N 37°49' W 122°25'3 5.4
2017-Jun-17 22:31N 37°50' W 122°28'3 5.4
2017-Jun-17 22:00N 37°49' W 122°25'0 0.7
2017-Jun-17 21:30N 37°49' W 122°25'3 5.6
2017-Jun-17 21:00N 37°49' W 122°28'3 5.1
2017-Jun-17 20:31N 37°49' W 122°25'0 0.0
2017-Jun-17 20:00N 37°49' W 122°25'0 0.0
2017-Jun-17 19:31N 37°49' W 122°25'1 2.2
2017-Jun-17 19:00N 37°50' W 122°25'2 3.1
2017-Jun-17 18:31N 37°49' W 122°27'2 3.3
2017-Jun-17 18:00N 37°49' W 122°25'2 4.7
2017-Jun-17 17:31N 37°49' W 122°28'2 4.6
2017-Jun-17 17:00N 37°49' W 122°25'0 0.0
2017-Jun-17 16:31N 37°49' W 122°25'0 0.0
2017-Jun-17 02:21N 37°49' W 122°25'  

Dump ship's entire track history